sensor_id;sensor_type;location;lat;lon;timestamp;P1;durP1;ratioP1;P2;durP2;ratioP2
16440;SDS011;8330;-33.858;151.184;2022-12-18T00:01:14;2.97;;;0.80;;
16440;SDS011;8330;-33.858;151.184;2022-12-18T00:03:46;2.47;;;0.82;;
16440;SDS011;8330;-33.858;151.184;2022-12-18T00:06:17;1.63;;;0.65;;
16440;SDS011;8330;-33.858;151.184;2022-12-18T00:08:48;3.33;;;0.88;;
16440;SDS011;8330;-33.858;151.184;2022-12-18T00:11:21;9.65;;;3.10;;
16440;SDS011;8330;-33.858;151.184;2022-12-18T00:13:53;10.27;;;2.10;;
16440;SDS011;8330;-33.858;151.184;2022-12-18T00:16:25;2.25;;;0.70;;
16440;SDS011;8330;-33.858;151.184;2022-12-18T00:18:59;4.22;;;1.30;;
16440;SDS011;8330;-33.858;151.184;2022-12-18T00:21:30;4.18;;;1.10;;
16440;SDS011;8330;-33.858;151.184;2022-12-18T00:24:01;5.10;;;0.80;;
16440;SDS011;8330;-33.858;151.184;2022-12-18T00:26:34;1.67;;;0.47;;
16440;SDS011;8330;-33.858;151.184;2022-12-18T00:29:06;1.38;;;0.70;;
16440;SDS011;8330;-33.858;151.184;2022-12-18T00:31:39;5.68;;;1.55;;
16440;SDS011;8330;-33.858;151.184;2022-12-18T00:34:13;6.15;;;1.35;;
16440;SDS011;8330;-33.858;151.184;2022-12-18T00:36:46;6.03;;;1.83;;
16440;SDS011;8330;-33.858;151.184;2022-12-18T00:39:17;8.10;;;1.52;;
16440;SDS011;8330;-33.858;151.184;2022-12-18T00:41:50;9.45;;;2.35;;
16440;SDS011;8330;-33.858;151.184;2022-12-18T00:44:37;3.47;;;1.02;;
16440;SDS011;8330;-33.858;151.184;2022-12-18T00:47:07;2.40;;;0.90;;
16440;SDS011;8330;-33.858;151.184;2022-12-18T00:49:38;3.83;;;1.20;;
16440;SDS011;8330;-33.858;151.184;2022-12-18T00:52:10;2.70;;;0.70;;
16440;SDS011;8330;-33.858;151.184;2022-12-18T00:54:41;4.45;;;1.05;;
16440;SDS011;8330;-33.858;151.184;2022-12-18T00:57:14;4.50;;;1.20;;
16440;SDS011;8330;-33.858;151.184;2022-12-18T00:59:45;4.10;;;0.93;;
16440;SDS011;8330;-33.858;151.184;2022-12-18T01:02:16;3.13;;;0.80;;
16440;SDS011;8330;-33.858;151.184;2022-12-18T01:04:47;2.53;;;0.60;;
16440;SDS011;8330;-33.858;151.184;2022-12-18T01:07:18;2.67;;;0.80;;
16440;SDS011;8330;-33.858;151.184;2022-12-18T01:09:48;4.72;;;1.10;;
16440;SDS011;8330;-33.858;151.184;2022-12-18T01:12:21;4.95;;;1.10;;
16440;SDS011;8330;-33.858;151.184;2022-12-18T01:14:52;7.03;;;1.52;;
16440;SDS011;8330;-33.858;151.184;2022-12-18T01:17:23;5.40;;;1.25;;
16440;SDS011;8330;-33.858;151.184;2022-12-18T01:19:57;6.20;;;1.40;;
16440;SDS011;8330;-33.858;151.184;2022-12-18T01:22:30;3.65;;;1.00;;
16440;SDS011;8330;-33.858;151.184;2022-12-18T01:25:01;6.15;;;1.27;;
16440;SDS011;8330;-33.858;151.184;2022-12-18T01:27:35;4.38;;;0.90;;
16440;SDS011;8330;-33.858;151.184;2022-12-18T01:30:08;5.93;;;1.38;;
16440;SDS011;8330;-33.858;151.184;2022-12-18T01:32:40;6.75;;;1.50;;
16440;SDS011;8330;-33.858;151.184;2022-12-18T01:35:11;2.92;;;1.05;;
16440;SDS011;8330;-33.858;151.184;2022-12-18T01:37:42;2.58;;;0.77;;
16440;SDS011;8330;-33.858;151.184;2022-12-18T01:40:12;4.43;;;1.50;;
16440;SDS011;8330;-33.858;151.184;2022-12-18T01:42:45;5.32;;;1.30;;
16440;SDS011;8330;-33.858;151.184;2022-12-18T01:45:25;3.55;;;1.38;;
16440;SDS011;8330;-33.858;151.184;2022-12-18T01:47:57;6.65;;;2.10;;
16440;SDS011;8330;-33.858;151.184;2022-12-18T01:50:30;5.80;;;2.22;;
16440;SDS011;8330;-33.858;151.184;2022-12-18T01:53:06;7.35;;;1.63;;
16440;SDS011;8330;-33.858;151.184;2022-12-18T01:55:40;5.80;;;1.23;;
16440;SDS011;8330;-33.858;151.184;2022-12-18T01:58:16;6.78;;;1.73;;
16440;SDS011;8330;-33.858;151.184;2022-12-18T02:00:48;6.35;;;1.33;;
16440;SDS011;8330;-33.858;151.184;2022-12-18T02:03:19;6.32;;;1.80;;
16440;SDS011;8330;-33.858;151.184;2022-12-18T02:05:52;6.28;;;1.50;;
16440;SDS011;8330;-33.858;151.184;2022-12-18T02:08:30;7.90;;;1.85;;
16440;SDS011;8330;-33.858;151.184;2022-12-18T02:11:05;6.88;;;1.60;;
16440;SDS011;8330;-33.858;151.184;2022-12-18T02:13:43;8.30;;;1.63;;
16440;SDS011;8330;-33.858;151.184;2022-12-18T02:16:23;7.03;;;1.27;;
16440;SDS011;8330;-33.858;151.184;2022-12-18T02:18:58;6.03;;;1.30;;
16440;SDS011;8330;-33.858;151.184;2022-12-18T02:21:36;10.88;;;1.55;;
16440;SDS011;8330;-33.858;151.184;2022-12-18T02:24:17;4.20;;;0.85;;
16440;SDS011;8330;-33.858;151.184;2022-12-18T02:26:59;7.05;;;1.10;;
16440;SDS011;8330;-33.858;151.184;2022-12-18T02:29:34;3.72;;;1.05;;
16440;SDS011;8330;-33.858;151.184;2022-12-18T02:32:13;5.70;;;1.27;;
16440;SDS011;8330;-33.858;151.184;2022-12-18T02:34:53;6.65;;;2.00;;
16440;SDS011;8330;-33.858;151.184;2022-12-18T02:37:27;7.38;;;1.65;;
16440;SDS011;8330;-33.858;151.184;2022-12-18T02:39:59;7.60;;;1.80;;
16440;SDS011;8330;-33.858;151.184;2022-12-18T02:42:34;9.98;;;2.63;;
16440;SDS011;8330;-33.858;151.184;2022-12-18T02:45:05;8.70;;;1.77;;
16440;SDS011;8330;-33.858;151.184;2022-12-18T02:47:36;8.27;;;1.95;;
16440;SDS011;8330;-33.858;151.184;2022-12-18T02:50:11;9.82;;;2.58;;
16440;SDS011;8330;-33.858;151.184;2022-12-18T02:52:53;8.82;;;1.55;;
16440;SDS011;8330;-33.858;151.184;2022-12-18T02:55:36;7.13;;;1.42;;
16440;SDS011;8330;-33.858;151.184;2022-12-18T02:58:20;5.43;;;1.15;;
16440;SDS011;8330;-33.858;151.184;2022-12-18T03:00:58;7.38;;;1.60;;
16440;SDS011;8330;-33.858;151.184;2022-12-18T03:03:33;8.18;;;1.60;;
16440;SDS011;8330;-33.858;151.184;2022-12-18T03:06:08;5.55;;;1.38;;
16440;SDS011;8330;-33.858;151.184;2022-12-18T03:08:44;5.95;;;2.47;;
16440;SDS011;8330;-33.858;151.184;2022-12-18T03:11:18;6.35;;;1.60;;
16440;SDS011;8330;-33.858;151.184;2022-12-18T03:14:12;6.30;;;1.58;;
16440;SDS011;8330;-33.858;151.184;2022-12-18T03:16:44;9.63;;;1.38;;
16440;SDS011;8330;-33.858;151.184;2022-12-18T03:19:22;11.05;;;1.48;;
16440;SDS011;8330;-33.858;151.184;2022-12-18T03:21:56;6.10;;;1.17;;
16440;SDS011;8330;-33.858;151.184;2022-12-18T03:24:29;8.07;;;1.45;;
16440;SDS011;8330;-33.858;151.184;2022-12-18T03:27:06;5.22;;;1.05;;
16440;SDS011;8330;-33.858;151.184;2022-12-18T03:29:42;7.95;;;1.40;;
16440;SDS011;8330;-33.858;151.184;2022-12-18T03:32:16;10.00;;;1.77;;
16440;SDS011;8330;-33.858;151.184;2022-12-18T03:34:53;5.38;;;1.27;;
16440;SDS011;8330;-33.858;151.184;2022-12-18T03:37:27;7.93;;;1.70;;
16440;SDS011;8330;-33.858;151.184;2022-12-18T03:40:04;7.75;;;1.50;;
16440;SDS011;8330;-33.858;151.184;2022-12-18T03:42:39;6.75;;;1.58;;
16440;SDS011;8330;-33.858;151.184;2022-12-18T03:45:20;6.35;;;1.55;;
16440;SDS011;8330;-33.858;151.184;2022-12-18T03:47:58;9.93;;;1.75;;
16440;SDS011;8330;-33.858;151.184;2022-12-18T03:50:36;6.07;;;1.40;;
16440;SDS011;8330;-33.858;151.184;2022-12-18T03:53:13;9.20;;;1.70;;
16440;SDS011;8330;-33.858;151.184;2022-12-18T03:55:51;7.53;;;1.67;;
16440;SDS011;8330;-33.858;151.184;2022-12-18T03:58:24;4.35;;;1.33;;
16440;SDS011;8330;-33.858;151.184;2022-12-18T04:01:00;4.45;;;1.10;;
16440;SDS011;8330;-33.858;151.184;2022-12-18T04:03:36;9.50;;;1.70;;
16440;SDS011;8330;-33.858;151.184;2022-12-18T04:06:07;8.35;;;1.67;;
16440;SDS011;8330;-33.858;151.184;2022-12-18T04:08:38;6.57;;;1.65;;
16440;SDS011;8330;-33.858;151.184;2022-12-18T04:11:10;6.47;;;1.77;;
16440;SDS011;8330;-33.858;151.184;2022-12-18T04:13:41;5.90;;;1.42;;
16440;SDS011;8330;-33.858;151.184;2022-12-18T04:16:14;4.10;;;1.10;;
16440;SDS011;8330;-33.858;151.184;2022-12-18T04:18:45;5.82;;;1.23;;
16440;SDS011;8330;-33.858;151.184;2022-12-18T04:21:16;4.97;;;1.08;;
16440;SDS011;8330;-33.858;151.184;2022-12-18T04:23:47;7.07;;;1.15;;
16440;SDS011;8330;-33.858;151.184;2022-12-18T04:26:18;7.10;;;1.33;;
16440;SDS011;8330;-33.858;151.184;2022-12-18T04:28:49;5.28;;;1.15;;
16440;SDS011;8330;-33.858;151.184;2022-12-18T04:31:23;3.72;;;1.08;;
16440;SDS011;8330;-33.858;151.184;2022-12-18T04:33:54;5.97;;;1.00;;
16440;SDS011;8330;-33.858;151.184;2022-12-18T04:36:24;5.07;;;1.20;;
16440;SDS011;8330;-33.858;151.184;2022-12-18T04:38:55;4.00;;;1.05;;
16440;SDS011;8330;-33.858;151.184;2022-12-18T04:41:26;3.58;;;0.80;;
16440;SDS011;8330;-33.858;151.184;2022-12-18T04:43:57;6.05;;;1.02;;
16440;SDS011;8330;-33.858;151.184;2022-12-18T04:46:29;7.00;;;1.52;;
16440;SDS011;8330;-33.858;151.184;2022-12-18T04:49:00;4.95;;;1.38;;
16440;SDS011;8330;-33.858;151.184;2022-12-18T04:51:33;8.88;;;1.30;;
16440;SDS011;8330;-33.858;151.184;2022-12-18T04:54:04;7.18;;;1.50;;
16440;SDS011;8330;-33.858;151.184;2022-12-18T04:56:36;4.95;;;1.20;;
16440;SDS011;8330;-33.858;151.184;2022-12-18T04:59:08;3.00;;;0.80;;
16440;SDS011;8330;-33.858;151.184;2022-12-18T05:01:41;4.72;;;1.00;;
16440;SDS011;8330;-33.858;151.184;2022-12-18T05:04:12;3.28;;;1.00;;
16440;SDS011;8330;-33.858;151.184;2022-12-18T05:06:43;4.93;;;1.23;;
16440;SDS011;8330;-33.858;151.184;2022-12-18T05:09:14;4.00;;;0.93;;
16440;SDS011;8330;-33.858;151.184;2022-12-18T05:11:45;3.17;;;1.08;;
16440;SDS011;8330;-33.858;151.184;2022-12-18T05:14:15;5.60;;;1.48;;
16440;SDS011;8330;-33.858;151.184;2022-12-18T05:16:48;4.95;;;1.27;;
16440;SDS011;8330;-33.858;151.184;2022-12-18T05:19:19;7.22;;;1.25;;
16440;SDS011;8330;-33.858;151.184;2022-12-18T05:21:50;4.25;;;1.13;;
16440;SDS011;8330;-33.858;151.184;2022-12-18T05:24:21;4.97;;;1.00;;
16440;SDS011;8330;-33.858;151.184;2022-12-18T05:26:52;4.97;;;1.15;;
16440;SDS011;8330;-33.858;151.184;2022-12-18T05:29:22;5.82;;;1.15;;
16440;SDS011;8330;-33.858;151.184;2022-12-18T05:32:00;5.00;;;0.98;;
16440;SDS011;8330;-33.858;151.184;2022-12-18T05:34:31;2.45;;;0.80;;
16440;SDS011;8330;-33.858;151.184;2022-12-18T05:37:02;3.00;;;1.10;;
16440;SDS011;8330;-33.858;151.184;2022-12-18T05:39:33;4.28;;;0.95;;
16440;SDS011;8330;-33.858;151.184;2022-12-18T05:42:04;4.82;;;1.10;;
16440;SDS011;8330;-33.858;151.184;2022-12-18T05:44:34;2.90;;;1.05;;
16440;SDS011;8330;-33.858;151.184;2022-12-18T05:47:07;4.13;;;1.00;;
16440;SDS011;8330;-33.858;151.184;2022-12-18T05:49:38;3.42;;;1.20;;
16440;SDS011;8330;-33.858;151.184;2022-12-18T05:52:09;5.38;;;1.40;;
16440;SDS011;8330;-33.858;151.184;2022-12-18T05:54:40;4.93;;;1.40;;
16440;SDS011;8330;-33.858;151.184;2022-12-18T05:57:10;4.53;;;1.23;;
16440;SDS011;8330;-33.858;151.184;2022-12-18T05:59:41;4.70;;;1.15;;
16440;SDS011;8330;-33.858;151.184;2022-12-18T06:02:14;4.03;;;1.08;;
16440;SDS011;8330;-33.858;151.184;2022-12-18T06:04:48;5.50;;;1.30;;
16440;SDS011;8330;-33.858;151.184;2022-12-18T06:07:19;7.28;;;1.23;;
16440;SDS011;8330;-33.858;151.184;2022-12-18T06:09:49;6.75;;;1.70;;
16440;SDS011;8330;-33.858;151.184;2022-12-18T06:12:20;5.93;;;1.33;;
16440;SDS011;8330;-33.858;151.184;2022-12-18T06:14:51;7.15;;;1.48;;
16440;SDS011;8330;-33.858;151.184;2022-12-18T06:17:24;7.28;;;1.45;;
16440;SDS011;8330;-33.858;151.184;2022-12-18T06:19:57;7.35;;;1.60;;
16440;SDS011;8330;-33.858;151.184;2022-12-18T06:22:30;4.95;;;1.50;;
16440;SDS011;8330;-33.858;151.184;2022-12-18T06:25:01;8.25;;;1.55;;
16440;SDS011;8330;-33.858;151.184;2022-12-18T06:27:32;6.75;;;1.38;;
16440;SDS011;8330;-33.858;151.184;2022-12-18T06:30:03;5.18;;;1.10;;
16440;SDS011;8330;-33.858;151.184;2022-12-18T06:32:37;10.10;;;1.50;;
16440;SDS011;8330;-33.858;151.184;2022-12-18T06:35:08;6.05;;;1.10;;
16440;SDS011;8330;-33.858;151.184;2022-12-18T06:37:39;5.03;;;1.10;;
16440;SDS011;8330;-33.858;151.184;2022-12-18T06:40:10;2.28;;;0.90;;
16440;SDS011;8330;-33.858;151.184;2022-12-18T06:42:41;6.80;;;1.10;;
16440;SDS011;8330;-33.858;151.184;2022-12-18T06:45:12;7.32;;;1.35;;
16440;SDS011;8330;-33.858;151.184;2022-12-18T06:47:47;6.65;;;1.23;;
16440;SDS011;8330;-33.858;151.184;2022-12-18T06:50:21;5.80;;;1.27;;
16440;SDS011;8330;-33.858;151.184;2022-12-18T06:52:52;3.60;;;1.17;;
16440;SDS011;8330;-33.858;151.184;2022-12-18T06:55:23;4.13;;;1.15;;
16440;SDS011;8330;-33.858;151.184;2022-12-18T06:57:54;4.53;;;1.17;;
16440;SDS011;8330;-33.858;151.184;2022-12-18T07:00:25;5.05;;;1.33;;
16440;SDS011;8330;-33.858;151.184;2022-12-18T07:02:58;6.82;;;1.13;;
16440;SDS011;8330;-33.858;151.184;2022-12-18T07:05:30;3.97;;;1.13;;
16440;SDS011;8330;-33.858;151.184;2022-12-18T07:08:01;3.17;;;1.25;;
16440;SDS011;8330;-33.858;151.184;2022-12-18T07:10:32;3.78;;;1.50;;
16440;SDS011;8330;-33.858;151.184;2022-12-18T07:13:09;3.63;;;1.13;;
16440;SDS011;8330;-33.858;151.184;2022-12-18T07:15:40;6.07;;;1.02;;
16440;SDS011;8330;-33.858;151.184;2022-12-18T07:18:13;6.32;;;1.05;;
16440;SDS011;8330;-33.858;151.184;2022-12-18T07:20:44;5.00;;;1.35;;
16440;SDS011;8330;-33.858;151.184;2022-12-18T07:23:15;5.80;;;1.30;;
16440;SDS011;8330;-33.858;151.184;2022-12-18T07:25:45;3.40;;;1.00;;
16440;SDS011;8330;-33.858;151.184;2022-12-18T07:28:19;5.45;;;1.10;;
16440;SDS011;8330;-33.858;151.184;2022-12-18T07:30:53;5.95;;;1.30;;
16440;SDS011;8330;-33.858;151.184;2022-12-18T07:33:26;6.85;;;1.65;;
16440;SDS011;8330;-33.858;151.184;2022-12-18T07:35:58;3.55;;;1.10;;
16440;SDS011;8330;-33.858;151.184;2022-12-18T07:38:29;5.85;;;1.20;;
16440;SDS011;8330;-33.858;151.184;2022-12-18T07:41:01;6.30;;;1.52;;
16440;SDS011;8330;-33.858;151.184;2022-12-18T07:43:36;6.07;;;1.30;;
16440;SDS011;8330;-33.858;151.184;2022-12-18T07:46:07;8.32;;;2.25;;
16440;SDS011;8330;-33.858;151.184;2022-12-18T07:48:44;5.55;;;2.05;;
16440;SDS011;8330;-33.858;151.184;2022-12-18T07:51:15;7.13;;;2.10;;
16440;SDS011;8330;-33.858;151.184;2022-12-18T07:53:47;8.48;;;2.08;;
16440;SDS011;8330;-33.858;151.184;2022-12-18T07:56:18;4.18;;;1.20;;
16440;SDS011;8330;-33.858;151.184;2022-12-18T07:58:49;6.25;;;1.77;;
16440;SDS011;8330;-33.858;151.184;2022-12-18T08:01:20;7.65;;;1.75;;
16440;SDS011;8330;-33.858;151.184;2022-12-18T08:03:53;21.73;;;6.88;;
16440;SDS011;8330;-33.858;151.184;2022-12-18T08:06:27;10.10;;;1.67;;
16440;SDS011;8330;-33.858;151.184;2022-12-18T08:08:58;7.82;;;2.47;;
16440;SDS011;8330;-33.858;151.184;2022-12-18T08:11:28;9.70;;;3.15;;
16440;SDS011;8330;-33.858;151.184;2022-12-18T08:13:59;5.50;;;1.83;;
16440;SDS011;8330;-33.858;151.184;2022-12-18T08:16:33;6.75;;;1.90;;
16440;SDS011;8330;-33.858;151.184;2022-12-18T08:19:06;6.68;;;1.92;;
16440;SDS011;8330;-33.858;151.184;2022-12-18T08:21:37;7.20;;;1.75;;
16440;SDS011;8330;-33.858;151.184;2022-12-18T08:24:08;7.75;;;1.35;;
16440;SDS011;8330;-33.858;151.184;2022-12-18T08:26:39;6.50;;;1.90;;
16440;SDS011;8330;-33.858;151.184;2022-12-18T08:29:10;4.25;;;1.33;;
16440;SDS011;8330;-33.858;151.184;2022-12-18T08:31:41;4.22;;;1.92;;
16440;SDS011;8330;-33.858;151.184;2022-12-18T08:34:14;5.32;;;1.70;;
16440;SDS011;8330;-33.858;151.184;2022-12-18T08:36:44;6.30;;;1.33;;
16440;SDS011;8330;-33.858;151.184;2022-12-18T08:39:15;5.35;;;1.27;;
16440;SDS011;8330;-33.858;151.184;2022-12-18T08:41:46;5.88;;;1.80;;
16440;SDS011;8330;-33.858;151.184;2022-12-18T08:44:29;7.07;;;2.15;;
16440;SDS011;8330;-33.858;151.184;2022-12-18T08:47:06;7.28;;;2.60;;
16440;SDS011;8330;-33.858;151.184;2022-12-18T08:49:39;4.50;;;1.33;;
16440;SDS011;8330;-33.858;151.184;2022-12-18T08:52:19;5.78;;;1.92;;
16440;SDS011;8330;-33.858;151.184;2022-12-18T08:54:50;6.30;;;2.10;;
16440;SDS011;8330;-33.858;151.184;2022-12-18T08:57:25;5.00;;;1.17;;
16440;SDS011;8330;-33.858;151.184;2022-12-18T09:00:28;4.75;;;1.10;;
16440;SDS011;8330;-33.858;151.184;2022-12-18T09:03:04;4.25;;;1.35;;
16440;SDS011;8330;-33.858;151.184;2022-12-18T09:05:45;8.45;;;1.95;;
16440;SDS011;8330;-33.858;151.184;2022-12-18T09:08:19;9.20;;;3.35;;
16440;SDS011;8330;-33.858;151.184;2022-12-18T09:11:03;4.95;;;0.80;;
16440;SDS011;8330;-33.858;151.184;2022-12-18T09:13:42;2.40;;;1.00;;
16440;SDS011;8330;-33.858;151.184;2022-12-18T09:16:13;3.28;;;1.10;;
16440;SDS011;8330;-33.858;151.184;2022-12-18T09:18:44;4.85;;;1.20;;
16440;SDS011;8330;-33.858;151.184;2022-12-18T09:21:18;3.38;;;0.82;;
16440;SDS011;8330;-33.858;151.184;2022-12-18T09:23:52;4.40;;;1.40;;
16440;SDS011;8330;-33.858;151.184;2022-12-18T09:26:23;4.68;;;1.05;;
16440;SDS011;8330;-33.858;151.184;2022-12-18T09:28:55;3.85;;;0.95;;
16440;SDS011;8330;-33.858;151.184;2022-12-18T09:31:27;5.38;;;1.23;;
16440;SDS011;8330;-33.858;151.184;2022-12-18T09:33:57;4.22;;;1.20;;
16440;SDS011;8330;-33.858;151.184;2022-12-18T09:36:34;7.30;;;2.33;;
16440;SDS011;8330;-33.858;151.184;2022-12-18T09:39:06;6.72;;;1.85;;
16440;SDS011;8330;-33.858;151.184;2022-12-18T09:41:46;13.10;;;5.20;;
16440;SDS011;8330;-33.858;151.184;2022-12-18T09:44:22;5.60;;;1.80;;
16440;SDS011;8330;-33.858;151.184;2022-12-18T09:46:58;5.50;;;1.52;;
16440;SDS011;8330;-33.858;151.184;2022-12-18T09:49:45;4.65;;;1.63;;
16440;SDS011;8330;-33.858;151.184;2022-12-18T09:52:26;4.80;;;1.55;;
16440;SDS011;8330;-33.858;151.184;2022-12-18T09:55:00;7.47;;;1.70;;
16440;SDS011;8330;-33.858;151.184;2022-12-18T09:57:40;7.18;;;1.95;;
16440;SDS011;8330;-33.858;151.184;2022-12-18T10:00:19;8.85;;;3.50;;
16440;SDS011;8330;-33.858;151.184;2022-12-18T10:02:51;8.65;;;1.55;;
16440;SDS011;8330;-33.858;151.184;2022-12-18T10:05:29;3.90;;;1.20;;
16440;SDS011;8330;-33.858;151.184;2022-12-18T10:08:08;8.57;;;1.80;;
16440;SDS011;8330;-33.858;151.184;2022-12-18T10:10:47;5.30;;;1.60;;
16440;SDS011;8330;-33.858;151.184;2022-12-18T10:13:26;6.88;;;1.85;;
16440;SDS011;8330;-33.858;151.184;2022-12-18T10:16:08;4.60;;;1.40;;
16440;SDS011;8330;-33.858;151.184;2022-12-18T10:18:58;6.47;;;1.10;;
16440;SDS011;8330;-33.858;151.184;2022-12-18T10:21:49;7.22;;;1.25;;
16440;SDS011;8330;-33.858;151.184;2022-12-18T10:24:29;5.28;;;1.17;;
16440;SDS011;8330;-33.858;151.184;2022-12-18T10:27:09;6.32;;;1.02;;
16440;SDS011;8330;-33.858;151.184;2022-12-18T10:29:43;5.45;;;1.08;;
16440;SDS011;8330;-33.858;151.184;2022-12-18T10:32:15;4.38;;;1.00;;
16440;SDS011;8330;-33.858;151.184;2022-12-18T10:34:48;7.35;;;1.48;;
16440;SDS011;8330;-33.858;151.184;2022-12-18T10:37:23;5.47;;;1.50;;
16440;SDS011;8330;-33.858;151.184;2022-12-18T10:40:08;4.20;;;1.20;;
16440;SDS011;8330;-33.858;151.184;2022-12-18T10:42:41;7.03;;;1.20;;
16440;SDS011;8330;-33.858;151.184;2022-12-18T10:45:14;5.63;;;1.15;;
16440;SDS011;8330;-33.858;151.184;2022-12-18T10:47:46;5.10;;;1.10;;
16440;SDS011;8330;-33.858;151.184;2022-12-18T10:50:19;4.28;;;1.10;;
16440;SDS011;8330;-33.858;151.184;2022-12-18T10:52:54;8.85;;;1.63;;
16440;SDS011;8330;-33.858;151.184;2022-12-18T10:55:30;5.03;;;1.20;;
16440;SDS011;8330;-33.858;151.184;2022-12-18T10:58:13;4.45;;;1.13;;
16440;SDS011;8330;-33.858;151.184;2022-12-18T11:03:41;5.22;;;1.40;;
16440;SDS011;8330;-33.858;151.184;2022-12-18T11:06:14;10.30;;;1.45;;
16440;SDS011;8330;-33.858;151.184;2022-12-18T11:08:57;7.03;;;1.40;;
16440;SDS011;8330;-33.858;151.184;2022-12-18T11:11:31;5.80;;;1.38;;
16440;SDS011;8330;-33.858;151.184;2022-12-18T11:14:06;6.05;;;1.58;;
16440;SDS011;8330;-33.858;151.184;2022-12-18T11:16:45;8.98;;;1.55;;
16440;SDS011;8330;-33.858;151.184;2022-12-18T11:19:21;8.52;;;1.25;;
16440;SDS011;8330;-33.858;151.184;2022-12-18T11:21:59;6.53;;;1.50;;
16440;SDS011;8330;-33.858;151.184;2022-12-18T11:24:31;7.75;;;1.52;;
16440;SDS011;8330;-33.858;151.184;2022-12-18T11:27:05;5.68;;;1.20;;
16440;SDS011;8330;-33.858;151.184;2022-12-18T11:29:51;5.55;;;1.40;;
16440;SDS011;8330;-33.858;151.184;2022-12-18T11:32:35;6.60;;;1.40;;
16440;SDS011;8330;-33.858;151.184;2022-12-18T11:35:11;8.10;;;2.00;;
16440;SDS011;8330;-33.858;151.184;2022-12-18T11:37:47;8.50;;;1.65;;
16440;SDS011;8330;-33.858;151.184;2022-12-18T11:40:27;5.35;;;1.70;;
16440;SDS011;8330;-33.858;151.184;2022-12-18T11:43:13;6.75;;;1.48;;
16440;SDS011;8330;-33.858;151.184;2022-12-18T11:45:48;8.98;;;1.80;;
16440;SDS011;8330;-33.858;151.184;2022-12-18T11:48:23;5.63;;;1.20;;
16440;SDS011;8330;-33.858;151.184;2022-12-18T11:50:57;8.15;;;1.55;;
16440;SDS011;8330;-33.858;151.184;2022-12-18T11:53:30;4.50;;;1.45;;
16440;SDS011;8330;-33.858;151.184;2022-12-18T11:56:05;7.10;;;1.67;;
16440;SDS011;8330;-33.858;151.184;2022-12-18T11:59:00;5.88;;;1.55;;
16440;SDS011;8330;-33.858;151.184;2022-12-18T12:01:46;7.90;;;1.52;;
16440;SDS011;8330;-33.858;151.184;2022-12-18T12:04:26;6.18;;;1.73;;
16440;SDS011;8330;-33.858;151.184;2022-12-18T12:07:19;11.48;;;1.73;;
16440;SDS011;8330;-33.858;151.184;2022-12-18T12:09:58;7.30;;;1.50;;
16440;SDS011;8330;-33.858;151.184;2022-12-18T12:12:39;6.50;;;1.77;;
16440;SDS011;8330;-33.858;151.184;2022-12-18T12:15:33;5.97;;;1.50;;
16440;SDS011;8330;-33.858;151.184;2022-12-18T12:18:16;9.07;;;1.75;;
16440;SDS011;8330;-33.858;151.184;2022-12-18T12:20:56;5.57;;;1.38;;
16440;SDS011;8330;-33.858;151.184;2022-12-18T12:23:33;7.90;;;1.70;;
16440;SDS011;8330;-33.858;151.184;2022-12-18T12:26:13;7.85;;;1.85;;
16440;SDS011;8330;-33.858;151.184;2022-12-18T12:28:54;7.28;;;1.33;;
16440;SDS011;8330;-33.858;151.184;2022-12-18T12:31:36;8.98;;;1.98;;
16440;SDS011;8330;-33.858;151.184;2022-12-18T12:34:19;6.90;;;1.70;;
16440;SDS011;8330;-33.858;151.184;2022-12-18T12:36:59;7.97;;;1.30;;
16440;SDS011;8330;-33.858;151.184;2022-12-18T12:39:40;6.28;;;1.20;;
16440;SDS011;8330;-33.858;151.184;2022-12-18T12:42:18;6.20;;;1.35;;
16440;SDS011;8330;-33.858;151.184;2022-12-18T12:45:13;6.40;;;1.20;;
16440;SDS011;8330;-33.858;151.184;2022-12-18T12:47:50;5.60;;;1.25;;
16440;SDS011;8330;-33.858;151.184;2022-12-18T12:50:23;4.25;;;0.93;;
16440;SDS011;8330;-33.858;151.184;2022-12-18T12:52:59;5.20;;;1.00;;
16440;SDS011;8330;-33.858;151.184;2022-12-18T12:55:35;6.75;;;1.40;;
16440;SDS011;8330;-33.858;151.184;2022-12-18T12:58:07;3.90;;;0.98;;
16440;SDS011;8330;-33.858;151.184;2022-12-18T13:00:45;9.07;;;1.40;;
16440;SDS011;8330;-33.858;151.184;2022-12-18T13:03:30;7.00;;;1.45;;
16440;SDS011;8330;-33.858;151.184;2022-12-18T13:06:12;7.13;;;1.75;;
16440;SDS011;8330;-33.858;151.184;2022-12-18T13:08:53;7.50;;;1.85;;
16440;SDS011;8330;-33.858;151.184;2022-12-18T13:11:36;7.97;;;1.55;;
16440;SDS011;8330;-33.858;151.184;2022-12-18T13:14:27;8.70;;;1.42;;
16440;SDS011;8330;-33.858;151.184;2022-12-18T13:20:13;9.13;;;2.17;;
16440;SDS011;8330;-33.858;151.184;2022-12-18T13:22:46;11.10;;;2.00;;
16440;SDS011;8330;-33.858;151.184;2022-12-18T13:28:07;10.05;;;2.22;;
16440;SDS011;8330;-33.858;151.184;2022-12-18T13:30:44;9.10;;;2.30;;
16440;SDS011;8330;-33.858;151.184;2022-12-18T13:36:37;10.20;;;2.28;;
16440;SDS011;8330;-33.858;151.184;2022-12-18T13:39:15;14.55;;;2.65;;
16440;SDS011;8330;-33.858;151.184;2022-12-18T13:41:53;13.65;;;2.55;;
16440;SDS011;8330;-33.858;151.184;2022-12-18T13:48:23;13.02;;;2.65;;
16440;SDS011;8330;-33.858;151.184;2022-12-18T13:50:59;18.52;;;3.45;;
16440;SDS011;8330;-33.858;151.184;2022-12-18T13:53:35;13.55;;;2.97;;
16440;SDS011;8330;-33.858;151.184;2022-12-18T13:56:15;18.05;;;3.22;;
16440;SDS011;8330;-33.858;151.184;2022-12-18T14:01:55;14.07;;;3.15;;
16440;SDS011;8330;-33.858;151.184;2022-12-18T14:04:27;16.05;;;3.35;;
16440;SDS011;8330;-33.858;151.184;2022-12-18T14:07:02;19.05;;;3.20;;
16440;SDS011;8330;-33.858;151.184;2022-12-18T14:09:39;19.33;;;3.10;;
16440;SDS011;8330;-33.858;151.184;2022-12-18T14:12:15;18.63;;;3.33;;
16440;SDS011;8330;-33.858;151.184;2022-12-18T14:15:03;12.85;;;2.80;;
16440;SDS011;8330;-33.858;151.184;2022-12-18T14:17:36;19.20;;;3.35;;
16440;SDS011;8330;-33.858;151.184;2022-12-18T14:20:13;17.83;;;3.03;;
16440;SDS011;8330;-33.858;151.184;2022-12-18T14:22:47;16.08;;;2.72;;
16440;SDS011;8330;-33.858;151.184;2022-12-18T14:25:20;14.15;;;2.53;;
16440;SDS011;8330;-33.858;151.184;2022-12-18T14:28:04;13.75;;;2.67;;
16440;SDS011;8330;-33.858;151.184;2022-12-18T14:30:44;12.63;;;2.60;;
16440;SDS011;8330;-33.858;151.184;2022-12-18T14:33:16;11.80;;;2.67;;
16440;SDS011;8330;-33.858;151.184;2022-12-18T14:35:58;16.30;;;2.42;;
16440;SDS011;8330;-33.858;151.184;2022-12-18T14:38:30;7.93;;;2.10;;
16440;SDS011;8330;-33.858;151.184;2022-12-18T14:41:06;13.65;;;2.75;;
16440;SDS011;8330;-33.858;151.184;2022-12-18T14:43:39;11.18;;;2.28;;
16440;SDS011;8330;-33.858;151.184;2022-12-18T14:46:25;9.80;;;1.95;;
16440;SDS011;8330;-33.858;151.184;2022-12-18T14:48:58;12.70;;;2.05;;
16440;SDS011;8330;-33.858;151.184;2022-12-18T14:51:30;8.38;;;1.75;;
16440;SDS011;8330;-33.858;151.184;2022-12-18T14:54:02;10.02;;;2.40;;
16440;SDS011;8330;-33.858;151.184;2022-12-18T14:56:42;10.00;;;1.77;;
16440;SDS011;8330;-33.858;151.184;2022-12-18T14:59:16;10.30;;;2.42;;
16440;SDS011;8330;-33.858;151.184;2022-12-18T15:01:51;9.50;;;2.05;;
16440;SDS011;8330;-33.858;151.184;2022-12-18T15:04:31;8.02;;;1.98;;
16440;SDS011;8330;-33.858;151.184;2022-12-18T15:07:07;6.75;;;1.40;;
16440;SDS011;8330;-33.858;151.184;2022-12-18T15:10:00;9.88;;;2.10;;
16440;SDS011;8330;-33.858;151.184;2022-12-18T15:12:41;12.57;;;2.03;;
16440;SDS011;8330;-33.858;151.184;2022-12-18T15:18:26;5.43;;;1.40;;
16440;SDS011;8330;-33.858;151.184;2022-12-18T15:21:07;7.80;;;1.90;;
16440;SDS011;8330;-33.858;151.184;2022-12-18T15:23:46;10.73;;;2.20;;
16440;SDS011;8330;-33.858;151.184;2022-12-18T15:26:18;12.82;;;2.63;;
16440;SDS011;8330;-33.858;151.184;2022-12-18T15:28:52;14.07;;;2.45;;